Terminal Aerodrome Forecast
Issued by NWS Sterling, VA

Current Version | Previous Version | Text Only | Print | Product List | Glossary Off
Versions: 1 2 3 4 5 6 7 8 9 10 11 12 13 14 15 16 17 18 19 20 21 22 23 24 25 26 27 28 29

077
FTUS41 KLWX 300708 AAB
TAFDCA
TAF AMD
KDCA 300708Z 3007/0106 21004KT 4SM BR OVC007
     FM300900 16006KT 1SM -RA BR OVC005
     FM301400 17009KT 2SM BR OVC003
     FM301900 19012KT P6SM OVC015
     FM302100 19011KT 5SM SHRA OVC018
     FM010500 25009KT 4SM -SHRA BKN025=

USA.gov is the U.S. government's official web portal to all federal, state and local government web resources and services.